Meteorología y climatología de Navarra
Datos de la estación - Meteo Navarra

Estación de Etxarri-Aranatz GN

Altitud 505 m.


Datos desde el 09/11/2018 hasta el 10/11/2018 en horario solar
Los datos son PROVISIONALES

Anterior Página 1 de 1 Siguiente Descargar: Formato para Excel 2000 o superior   Formato csv   Formato para OpenOffice Calc
Fecha Temperatura Humedad relativa Radiación global Insolación Precipitación Velocidad viento 10 m Velocidad viento 10 m Dirección viento 10 m
ºC % W/m² s l/m² m/s km/h º
09/11/2018 0:00 7.5 98 0.0 0 0.0 0.8 3.0 20
09/11/2018 0:10 7.5 98 0.0 0 0.0 0.4 1.5 14
09/11/2018 0:20 7.4 98 0.0 0 0.0 0.9 3.2 41
09/11/2018 0:30 7.4 98 0.0 0 0.0 0.9 3.4 17
09/11/2018 0:40 7.2 98 0.0 0 0.0 0.2 0.9 6
09/11/2018 0:50 6.9 98 0.0 0 0.0 0.6 2.2 204
09/11/2018 1:00 6.7 98 0.0 0 0.0 1.1 3.9 244
09/11/2018 1:10 6.9 98 0.0 0 0.0 0.8 2.8 249
09/11/2018 1:20 6.8 98 0.0 0 0.0 0.7 2.4 143
09/11/2018 1:30 6.6 98 0.0 0 0.0 1.1 3.9 206
09/11/2018 1:40 6.8 98 0.0 0 0.0 1.1 4.0 235
09/11/2018 1:50 6.9 98 0.0 0 0.0 1.4 5.0 259
09/11/2018 2:00 7.0 98 0.0 0 0.0 1.5 5.4 262
09/11/2018 2:10 7.1 97 0.0 0 0.0 1.0 3.5 335
09/11/2018 2:20 7.2 96 0.0 0 0.0 0.8 2.7 324
09/11/2018 2:30 7.1 97 0.0 0 0.0 0.6 2.1 285
09/11/2018 2:40 7.0 96 0.0 0 0.2 0.9 3.3 309
09/11/2018 2:50 7.2 95 0.0 0 0.1 1.0 3.5 306
09/11/2018 3:00 7.2 95 0.0 0 0.1 1.3 4.5 318
09/11/2018 3:10 7.2 95 0.0 0 0.2 1.7 6.0 322
09/11/2018 3:20 7.1 96 0.0 0 0.2 1.3 4.6 309
09/11/2018 3:30 7.0 97 0.0 0 0.2 0.6 2.2 290
09/11/2018 3:40 6.9 97 0.0 0 0.2 0.3 1.0 304
09/11/2018 3:50 7.0 97 0.0 0 0.2 1.1 3.8 278
09/11/2018 4:00 6.9 97 0.0 0 0.0 2.3 8.3 257
09/11/2018 4:10 6.8 97 0.0 0 0.1 2.2 7.9 253
09/11/2018 4:20 6.8 97 0.0 0 0.0 1.7 6.1 247
09/11/2018 4:30 6.7 97 0.0 0 0.1 0.6 2.0 307
09/11/2018 4:40 6.8 98 0.0 0 0.0 0.5 1.7 33
09/11/2018 4:50 6.8 98 0.0 0 0.0 0.4 1.4 326
09/11/2018 5:00 6.9 98 0.0 0 0.2 0.6 2.1 288
09/11/2018 5:10 6.8 98 0.0 0 0.0 1.0 3.5 300
09/11/2018 5:20 6.7 98 0.0 0 0.3 1.1 4.1 317
09/11/2018 5:30 6.8 98 0.0 0 0.1 0.8 3.0 300
09/11/2018 5:40 6.8 98 0.0 0 0.0 0.9 3.1 294
09/11/2018 5:50 6.8 98 0.0 0 0.0 1.8 6.4 260
09/11/2018 6:00 6.8 97 0.0 0 0.0 2.1 7.6 256
09/11/2018 6:10 6.8 97 0.0 0 0.0 2.2 8.0 256
09/11/2018 6:20 6.7 97 0.0 0 0.0 2.1 7.4 248
09/11/2018 6:30 6.7 97 0.0 0 0.0 2.2 7.8 249
09/11/2018 6:40 6.7 96 0.0 0 0.0 1.0 3.6 286
09/11/2018 6:50 6.6 97 0.0 0 0.0 0.8 2.7 288
09/11/2018 7:00 6.6 96 0.0 0 0.0 0.6 2.2 320
09/11/2018 7:10 6.7 96 0.0 0 0.0 0.8 2.9 313
09/11/2018 7:20 6.7 97 0.0 0 0.0 1.0 3.5 238
09/11/2018 7:30 6.6 97 5.5 0 0.0 1.3 4.8 255
09/11/2018 7:40 6.6 97 23.2 0 0.0 0.6 2.1 337
09/11/2018 7:50 6.8 97 32.9 0 0.0 0.5 1.7 293
09/11/2018 8:00 6.9 98 40.2 0 0.0 0.6 2.1 312
09/11/2018 8:10 7.1 98 59.9 0 0.0 0.4 1.4 283
09/11/2018 8:20 7.0 97 69.2 0 0.0 0.7 2.5 337
09/11/2018 8:30 7.2 97 69.6 0 0.0 0.8 2.7 327
09/11/2018 8:40 7.2 95 96.0 0 0.0 1.0 3.7 312
09/11/2018 8:50 7.4 95 122.6 0 0.0 0.9 3.1 315
09/11/2018 9:00 7.5 95 114.8 0 0.0 0.8 2.9 301
09/11/2018 9:10 7.5 92 115.0 0 0.0 1.1 4.0 305
09/11/2018 9:20 7.6 90 131.5 0 0.0 1.3 4.8 318
09/11/2018 9:30 7.7 92 162.5 0 0.0 1.3 4.8 271
09/11/2018 9:40 7.8 90 168.1 0 0.0 1.8 6.5 282
09/11/2018 9:50 7.9 88 165.3 0 0.0 1.6 5.8 274
09/11/2018 10:00 8.2 86 181.7 0 0.0 2.3 8.1 269
09/11/2018 10:10 8.6 83 154.1 0 0.0 2.0 7.2 272
09/11/2018 10:20 8.8 83 188.9 0 0.0 1.4 4.9 262
09/11/2018 10:30 9.2 81 254.3 334 0.0 1.9 6.8 264
09/11/2018 10:40 9.4 79 243.0 214 0.0 2.4 8.5 272
09/11/2018 10:50 9.5 79 248.6 252 0.0 2.1 7.7 266
09/11/2018 11:00 9.8 78 286.7 600 0.0 2.6 9.4 263
09/11/2018 11:10 9.9 78 277.2 382 0.0 2.8 10.2 266
09/11/2018 11:20 10.2 76 381.7 600 0.0 2.7 9.7 261
09/11/2018 11:30 10.7 73 523.0 600 0.0 3.2 11.5 257
09/11/2018 11:40 11.3 70 543.8 600 0.0 2.1 7.6 259
09/11/2018 11:50 11.5 67 537.3 600 0.0 3.2 11.6 257
09/11/2018 12:00 11.4 68 536.5 600 0.0 3.0 10.6 267
09/11/2018 12:10 11.7 66 535.8 600 0.0 2.4 8.7 264
09/11/2018 12:20 12.1 64 539.4 600 0.0 2.2 7.7 266
09/11/2018 12:30 11.9 62 322.4 356 0.0 2.1 7.6 276
09/11/2018 12:40 12.3 63 549.7 596 0.0 2.2 8.0 255
09/11/2018 12:50 12.0 63 228.5 212 0.0 2.7 9.8 256
09/11/2018 13:00 11.9 63 475.4 600 0.0 1.8 6.5 283
09/11/2018 13:10 12.6 62 518.6 600 0.0 4.0 14.4 254
09/11/2018 13:20 12.3 60 476.2 600 0.0 3.5 12.5 266
09/11/2018 13:30 12.1 59 383.2 600 0.0 2.8 9.9 279
09/11/2018 13:40 11.8 60 372.1 600 0.0 2.8 10.2 279
09/11/2018 13:50 12.0 60 311.9 382 0.0 2.5 8.8 273
09/11/2018 14:00 11.5 60 289.3 492 0.0 2.7 9.8 280
09/11/2018 14:10 12.1 58 411.3 600 0.0 2.9 10.4 268
09/11/2018 14:20 12.0 57 374.0 600 0.0 2.2 8.0 283
09/11/2018 14:30 11.9 57 307.2 600 0.0 1.8 6.4 301
09/11/2018 14:40 11.6 57 307.5 600 0.0 1.9 6.8 314
09/11/2018 14:50 11.8 57 272.5 600 0.0 1.9 6.7 300
09/11/2018 15:00 11.9 57 263.2 600 0.0 2.0 7.3 292
09/11/2018 15:10 11.9 56 181.3 384 0.0 2.2 7.9 283
09/11/2018 15:20 11.3 58 38.2 0 0.0 1.5 5.5 277
09/11/2018 15:30 10.8 58 48.4 0 0.0 2.2 7.9 279
09/11/2018 15:40 10.8 59 75.3 0 0.0 2.1 7.6 267
09/11/2018 15:50 10.9 59 86.3 158 0.0 2.6 9.2 252
09/11/2018 16:00 11.0 58 49.1 0 0.0 3.1 11.1 249
09/11/2018 16:10 11.0 58 42.6 50 0.0 4.0 14.3 256
09/11/2018 16:20 10.8 59 14.6 0 0.0 3.4 12.2 253
09/11/2018 16:30 10.5 61 0.0 0 0.0 2.1 7.4 265
09/11/2018 16:40 10.2 62 0.0 0 0.0 1.8 6.4 267
09/11/2018 16:50 10.1 62 0.0 0 0.0 1.5 5.5 274
09/11/2018 17:00 10.2 63 0.0 0 0.0 2.0 7.1 264
09/11/2018 17:10 10.0 64 0.0 0 0.0 1.4 4.9 269
09/11/2018 17:20 10.0 65 0.0 0 0.0 2.4 8.8 256
09/11/2018 17:30 10.2 65 0.0 0 0.0 1.6 5.8 268
09/11/2018 17:40 10.1 66 0.0 0 0.0 1.2 4.1 246
09/11/2018 17:50 9.9 69 0.0 0 0.0 0.9 3.3 92
09/11/2018 18:00 9.9 68 0.0 0 0.0 2.0 7.0 58
09/11/2018 18:10 10.4 66 0.0 0 0.0 0.9 3.3 313
09/11/2018 18:20 10.4 66 0.0 0 0.0 1.1 3.9 290
09/11/2018 18:30 10.4 67 0.0 0 0.0 1.2 4.2 296
09/11/2018 18:40 10.4 67 0.0 0 0.0 1.5 5.3 300
09/11/2018 18:50 10.3 69 0.0 0 0.0 1.0 3.6 291
09/11/2018 19:00 10.3 70 0.0 0 0.0 1.1 3.8 335
09/11/2018 19:10 10.2 71 0.0 0 0.0 1.0 3.7 279
09/11/2018 19:20 10.3 70 0.0 0 0.0 0.8 2.9 329
09/11/2018 19:30 10.5 69 0.0 0 0.0 1.3 4.6 327
09/11/2018 19:40 10.4 71 0.0 0 0.0 1.2 4.4 336
09/11/2018 19:50 10.2 72 0.0 0 0.0 1.3 4.8 288
09/11/2018 20:00 10.3 72 0.0 0 0.0 1.2 4.4 275
09/11/2018 20:10 10.4 72 0.0 0 0.0 1.6 5.8 301
09/11/2018 20:20 10.8 70 0.0 0 0.0 1.5 5.4 330
09/11/2018 20:30 10.8 70 0.0 0 0.0 1.2 4.2 342
09/11/2018 20:40 10.5 75 0.0 0 0.0 1.2 4.2 119
09/11/2018 20:50 10.1 76 0.0 0 0.0 1.1 3.8 22
09/11/2018 21:00 10.2 77 0.0 0 0.0 1.0 3.6 329
09/11/2018 21:10 10.1 79 0.0 0 0.2 1.2 4.4 333
09/11/2018 21:20 9.9 83 0.0 0 0.0 0.5 1.8 349
09/11/2018 21:30 9.4 87 0.0 0 0.0 0.9 3.4 31
09/11/2018 21:40 9.3 89 0.0 0 0.0 0.7 2.4 46
09/11/2018 21:50 9.2 89 0.0 0 0.0 1.0 3.7 146
09/11/2018 22:00 9.1 89 0.0 0 0.0 0.9 3.3 263
09/11/2018 22:10 9.8 85 0.0 0 0.0 0.7 2.6 2
09/11/2018 22:20 9.7 86 0.0 0 0.0 2.1 7.5 111
09/11/2018 22:30 10.0 82 0.0 0 0.0 1.4 5.1 217
09/11/2018 22:40 10.0 81 0.0 0 0.0 2.0 7.3 167
09/11/2018 22:50 9.8 79 0.0 0 0.0 4.2 15.0 176
09/11/2018 23:00 9.5 78 0.0 0 0.0 3.6 12.9 181
09/11/2018 23:10 9.6 74 0.0 0 0.0 3.7 13.2 165
09/11/2018 23:20 9.9 71 0.0 0 0.0 3.4 12.4 179
09/11/2018 23:30 10.0 70 0.0 0 0.0 5.4 19.5 166
09/11/2018 23:40 10.2 69 0.0 0 0.0 4.7 16.8 174
09/11/2018 23:50 10.0 72 0.0 0 0.2 4.0 14.2 165
Anterior Página 1 de 1 Siguiente

NOTA: Tipo de datos según el color:
   - Valores diarios o 10 minutos correctos
   - Valores diarios calculados a partir de un número de datos 10 minutos menor que 144 y mayor que 120, o de un número de datos semihorarios menor que 48 y mayor que 40 (caso de las estaciones de Riegos de Navarra y del MARM)
   - Valores diez minutos estimados


Contacto        Enlaces        Aviso legal